Aérodrome :
LOGIN :

S'inscrire | Disclaimer

   EN    FR    IT 

 










Légende :    VFR   VFR Marginal   IFR   IFR Intensif   IFR Très Intensif
Visi : 
Plafond : 
>= 8 km
>= 3000ft
5 à 8 km
1000 à 3000 ft
1500m à 5 km
500 à 1000 ft
800 à 1500m
200 à 500 ft
< 800m
< 200 ft
Symboles :   Orages  Brouillard  Fortes neiges  Fortes précipitations  Vent > 20 kt
SIGMETs :   Divers  Orages  Givrage  Turbulence  Onde Orograph.  Cendres Volcan.







- Altitude de l'aérodrome : 359 ft
- Code IATA : BVA
- Voir les cartes d'approche


LFOB - Beauvais

DERNIER METAR :
  • 181730Z AUTO 25012KT 9999 FEW039 SCT047 BKN098 08/04 Q1005 TEMPO 28020G35KT 4000 SHRA BKN015CB

METARs EXPIRÉS :
  • 181700Z AUTO 27011KT 9999 BKN035 BKN043 BKN052 09/04 Q1005 TEMPO 28020G35KT 4000 SHRA BKN015CB
  • 181630Z AUTO 27010KT 9999 BKN036 OVC045 09/03 Q1005 TEMPO 28020G35KT 4000 SHRA BKN015CB
  • 181600Z AUTO 27011KT 9999 FEW040 SCT048 09/03 Q1005 TEMPO 28020G35KT 4000 SHRA BKN015CB
  • 181530Z AUTO 27015KT 250V310 9999 BKN046 10/03 Q1005 TEMPO 28020G35KT 4000 SHRA BKN015CB
  • 181500Z AUTO 27017KT CAVOK 10/03 Q1005 TEMPO 28020G35KT 4000 SHRA BKN015CB

TAF TAF LFOB
Valide du 18 à 18h jusqu'au 19 à 18h UTC


181700Z 1818/1918 27015G25KT 9999 SCT030
TEMPO 1818/1822 28020G35KT 4000 SHRA BKN015CB
BECMG 1900/1903 26012KT
PROB30
TEMPO 1906/1910 BKN010
TEMPO 1912/1918 27020G30KT 4000 SHRA BKN015CB
ATIS : +33 3 44 11 49 28
Pas de NOTAMs connus pour ce terrain.



MET'MAP, la Météo Aéronautique d'un coup d'oeil ! - Copyright ORBIFLY Décembre 2007 - Disclaimer

ORBIFLY MET'MAP TEAM :

Programmation & Développement : Alexandra Zaïnal
Conception & Développement : Baudouin d'Aumeries
Co-Programmation & Développement : Marc-Olivier Méhu
Soutien technique & logistique : Manuel Goepfert

Contact : metmap@orbifly.com




SOURCES & CREDITS :

   NOAA